sensor_id;sensor_type;location;lat;lon;timestamp;P1;durP1;ratioP1;P2;durP2;ratioP2
8407;SDS011;4241;48.452;9.216;2023-08-08T00:00:33;455.27;;;168.73;;
8407;SDS011;4241;48.452;9.216;2023-08-08T00:03:00;455.93;;;169.80;;
8407;SDS011;4241;48.452;9.216;2023-08-08T00:05:27;454.07;;;168.93;;
8407;SDS011;4241;48.452;9.216;2023-08-08T00:07:55;456.00;;;169.37;;
8407;SDS011;4241;48.452;9.216;2023-08-08T00:10:22;456.33;;;170.30;;
8407;SDS011;4241;48.452;9.216;2023-08-08T00:12:48;455.47;;;169.93;;
8407;SDS011;4241;48.452;9.216;2023-08-08T00:15:15;454.60;;;166.57;;
8407;SDS011;4241;48.452;9.216;2023-08-08T00:17:43;457.57;;;170.80;;
8407;SDS011;4241;48.452;9.216;2023-08-08T00:20:10;461.03;;;174.80;;
8407;SDS011;4241;48.452;9.216;2023-08-08T00:22:37;456.97;;;170.10;;
8407;SDS011;4241;48.452;9.216;2023-08-08T00:25:05;454.57;;;167.97;;
8407;SDS011;4241;48.452;9.216;2023-08-08T00:27:33;453.70;;;165.27;;
8407;SDS011;4241;48.452;9.216;2023-08-08T00:30:00;453.60;;;165.80;;
8407;SDS011;4241;48.452;9.216;2023-08-08T00:32:27;452.57;;;165.40;;
8407;SDS011;4241;48.452;9.216;2023-08-08T00:34:54;449.00;;;164.87;;
8407;SDS011;4241;48.452;9.216;2023-08-08T00:37:20;450.80;;;166.43;;
8407;SDS011;4241;48.452;9.216;2023-08-08T00:39:47;451.93;;;165.43;;
8407;SDS011;4241;48.452;9.216;2023-08-08T00:42:15;452.03;;;167.03;;
8407;SDS011;4241;48.452;9.216;2023-08-08T00:44:42;455.27;;;169.17;;
8407;SDS011;4241;48.452;9.216;2023-08-08T00:47:09;456.00;;;168.23;;
8407;SDS011;4241;48.452;9.216;2023-08-08T00:49:36;453.30;;;167.90;;
8407;SDS011;4241;48.452;9.216;2023-08-08T00:52:04;454.70;;;169.87;;
8407;SDS011;4241;48.452;9.216;2023-08-08T00:54:33;457.80;;;171.70;;
8407;SDS011;4241;48.452;9.216;2023-08-08T00:56:59;456.53;;;170.47;;
8407;SDS011;4241;48.452;9.216;2023-08-08T00:59:28;454.60;;;168.60;;
8407;SDS011;4241;48.452;9.216;2023-08-08T01:01:55;456.73;;;169.83;;
8407;SDS011;4241;48.452;9.216;2023-08-08T01:04:22;455.87;;;168.60;;
8407;SDS011;4241;48.452;9.216;2023-08-08T01:06:58;454.97;;;167.93;;
8407;SDS011;4241;48.452;9.216;2023-08-08T01:09:33;456.77;;;171.17;;
8407;SDS011;4241;48.452;9.216;2023-08-08T01:12:03;459.77;;;172.10;;
8407;SDS011;4241;48.452;9.216;2023-08-08T01:14:33;461.90;;;174.40;;
8407;SDS011;4241;48.452;9.216;2023-08-08T01:17:01;458.30;;;170.80;;
8407;SDS011;4241;48.452;9.216;2023-08-08T01:19:30;463.13;;;177.43;;
8407;SDS011;4241;48.452;9.216;2023-08-08T01:22:01;468.70;;;182.70;;
8407;SDS011;4241;48.452;9.216;2023-08-08T01:24:31;462.80;;;175.90;;
8407;SDS011;4241;48.452;9.216;2023-08-08T01:27:02;460.20;;;171.70;;
8407;SDS011;4241;48.452;9.216;2023-08-08T01:29:30;458.23;;;170.50;;
8407;SDS011;4241;48.452;9.216;2023-08-08T01:31:57;459.17;;;170.20;;
8407;SDS011;4241;48.452;9.216;2023-08-08T01:34:24;461.33;;;173.37;;
8407;SDS011;4241;48.452;9.216;2023-08-08T01:36:52;460.90;;;172.77;;
8407;SDS011;4241;48.452;9.216;2023-08-08T01:39:22;459.53;;;172.17;;
8407;SDS011;4241;48.452;9.216;2023-08-08T01:41:54;461.47;;;172.17;;
8407;SDS011;4241;48.452;9.216;2023-08-08T01:44:22;461.73;;;175.43;;
8407;SDS011;4241;48.452;9.216;2023-08-08T01:46:50;459.43;;;173.83;;
8407;SDS011;4241;48.452;9.216;2023-08-08T01:49:17;458.57;;;171.53;;
8407;SDS011;4241;48.452;9.216;2023-08-08T01:51:44;460.80;;;172.80;;
8407;SDS011;4241;48.452;9.216;2023-08-08T01:54:11;462.07;;;174.60;;
8407;SDS011;4241;48.452;9.216;2023-08-08T01:56:38;460.00;;;172.93;;
8407;SDS011;4241;48.452;9.216;2023-08-08T01:59:06;460.73;;;172.13;;
8407;SDS011;4241;48.452;9.216;2023-08-08T02:01:33;462.80;;;175.40;;
8407;SDS011;4241;48.452;9.216;2023-08-08T02:03:59;466.70;;;179.17;;
8407;SDS011;4241;48.452;9.216;2023-08-08T02:06:26;460.80;;;172.33;;
8407;SDS011;4241;48.452;9.216;2023-08-08T02:08:53;461.10;;;171.97;;
8407;SDS011;4241;48.452;9.216;2023-08-08T02:11:20;461.73;;;173.03;;
8407;SDS011;4241;48.452;9.216;2023-08-08T02:13:47;462.40;;;174.23;;
8407;SDS011;4241;48.452;9.216;2023-08-08T02:16:15;460.77;;;173.13;;
8407;SDS011;4241;48.452;9.216;2023-08-08T02:18:42;460.90;;;175.07;;
8407;SDS011;4241;48.452;9.216;2023-08-08T02:21:09;461.20;;;174.77;;
8407;SDS011;4241;48.452;9.216;2023-08-08T02:23:36;460.07;;;171.93;;
8407;SDS011;4241;48.452;9.216;2023-08-08T02:26:03;460.67;;;177.40;;
8407;SDS011;4241;48.452;9.216;2023-08-08T02:28:30;460.00;;;174.87;;
8407;SDS011;4241;48.452;9.216;2023-08-08T02:30:57;459.37;;;176.10;;
8407;SDS011;4241;48.452;9.216;2023-08-08T02:33:25;459.13;;;173.23;;
8407;SDS011;4241;48.452;9.216;2023-08-08T02:35:52;458.87;;;173.57;;
8407;SDS011;4241;48.452;9.216;2023-08-08T02:38:19;459.00;;;173.80;;
8407;SDS011;4241;48.452;9.216;2023-08-08T02:40:45;458.73;;;174.33;;
8407;SDS011;4241;48.452;9.216;2023-08-08T02:43:12;455.93;;;167.67;;
8407;SDS011;4241;48.452;9.216;2023-08-08T02:45:39;458.07;;;171.77;;
8407;SDS011;4241;48.452;9.216;2023-08-08T02:48:06;458.67;;;176.00;;
8407;SDS011;4241;48.452;9.216;2023-08-08T02:50:34;456.00;;;171.07;;
8407;SDS011;4241;48.452;9.216;2023-08-08T02:53:01;458.23;;;171.13;;
8407;SDS011;4241;48.452;9.216;2023-08-08T02:55:28;456.87;;;170.07;;
8407;SDS011;4241;48.452;9.216;2023-08-08T02:57:54;456.13;;;168.17;;
8407;SDS011;4241;48.452;9.216;2023-08-08T03:00:21;454.50;;;167.70;;
8407;SDS011;4241;48.452;9.216;2023-08-08T03:02:48;457.10;;;169.50;;
8407;SDS011;4241;48.452;9.216;2023-08-08T03:05:15;454.00;;;165.37;;
8407;SDS011;4241;48.452;9.216;2023-08-08T03:07:43;455.67;;;166.90;;
8407;SDS011;4241;48.452;9.216;2023-08-08T03:10:10;455.53;;;167.10;;
8407;SDS011;4241;48.452;9.216;2023-08-08T03:12:37;454.57;;;165.37;;
8407;SDS011;4241;48.452;9.216;2023-08-08T03:15:05;453.90;;;165.17;;
8407;SDS011;4241;48.452;9.216;2023-08-08T03:17:33;454.57;;;167.33;;
8407;SDS011;4241;48.452;9.216;2023-08-08T03:20:00;455.57;;;164.03;;
8407;SDS011;4241;48.452;9.216;2023-08-08T03:22:28;454.17;;;165.77;;
8407;SDS011;4241;48.452;9.216;2023-08-08T03:24:56;453.37;;;162.87;;
8407;SDS011;4241;48.452;9.216;2023-08-08T03:27:23;454.07;;;165.60;;
8407;SDS011;4241;48.452;9.216;2023-08-08T03:29:50;459.67;;;167.70;;
8407;SDS011;4241;48.452;9.216;2023-08-08T03:32:17;453.67;;;161.00;;
8407;SDS011;4241;48.452;9.216;2023-08-08T03:34:44;452.93;;;164.57;;
8407;SDS011;4241;48.452;9.216;2023-08-08T03:37:11;455.87;;;167.43;;
8407;SDS011;4241;48.452;9.216;2023-08-08T03:39:38;454.10;;;164.07;;
8407;SDS011;4241;48.452;9.216;2023-08-08T03:42:06;453.67;;;162.93;;
8407;SDS011;4241;48.452;9.216;2023-08-08T03:44:33;452.83;;;163.60;;
8407;SDS011;4241;48.452;9.216;2023-08-08T03:47:00;452.00;;;164.17;;
8407;SDS011;4241;48.452;9.216;2023-08-08T03:49:27;453.87;;;165.97;;
8407;SDS011;4241;48.452;9.216;2023-08-08T03:51:54;454.13;;;164.03;;
8407;SDS011;4241;48.452;9.216;2023-08-08T03:54:21;454.20;;;163.23;;
8407;SDS011;4241;48.452;9.216;2023-08-08T03:56:47;454.27;;;162.93;;
8407;SDS011;4241;48.452;9.216;2023-08-08T03:59:16;453.57;;;162.80;;
8407;SDS011;4241;48.452;9.216;2023-08-08T04:01:42;452.63;;;160.47;;
8407;SDS011;4241;48.452;9.216;2023-08-08T04:04:10;452.00;;;160.90;;
8407;SDS011;4241;48.452;9.216;2023-08-08T04:06:36;453.77;;;164.43;;
8407;SDS011;4241;48.452;9.216;2023-08-08T04:09:03;452.83;;;163.87;;
8407;SDS011;4241;48.452;9.216;2023-08-08T04:11:30;450.60;;;162.87;;
8407;SDS011;4241;48.452;9.216;2023-08-08T04:13:57;459.00;;;167.97;;
8407;SDS011;4241;48.452;9.216;2023-08-08T04:16:25;451.60;;;162.77;;
8407;SDS011;4241;48.452;9.216;2023-08-08T04:18:52;451.70;;;161.57;;
8407;SDS011;4241;48.452;9.216;2023-08-08T04:21:18;451.10;;;157.80;;
8407;SDS011;4241;48.452;9.216;2023-08-08T04:23:45;455.27;;;162.53;;
8407;SDS011;4241;48.452;9.216;2023-08-08T04:26:12;453.23;;;162.20;;
8407;SDS011;4241;48.452;9.216;2023-08-08T04:28:39;452.20;;;159.73;;
8407;SDS011;4241;48.452;9.216;2023-08-08T04:31:06;451.97;;;159.73;;
8407;SDS011;4241;48.452;9.216;2023-08-08T04:33:35;456.57;;;164.33;;
8407;SDS011;4241;48.452;9.216;2023-08-08T04:36:02;454.70;;;161.37;;
8407;SDS011;4241;48.452;9.216;2023-08-08T04:38:29;454.23;;;160.43;;
8407;SDS011;4241;48.452;9.216;2023-08-08T04:40:55;453.90;;;161.43;;
8407;SDS011;4241;48.452;9.216;2023-08-08T04:43:22;453.77;;;160.57;;
8407;SDS011;4241;48.452;9.216;2023-08-08T04:45:50;454.43;;;162.33;;
8407;SDS011;4241;48.452;9.216;2023-08-08T04:48:17;453.33;;;162.30;;
8407;SDS011;4241;48.452;9.216;2023-08-08T04:50:47;451.73;;;162.30;;
8407;SDS011;4241;48.452;9.216;2023-08-08T04:53:13;454.10;;;164.73;;
8407;SDS011;4241;48.452;9.216;2023-08-08T04:55:40;452.93;;;161.00;;
8407;SDS011;4241;48.452;9.216;2023-08-08T04:58:07;454.53;;;163.40;;
8407;SDS011;4241;48.452;9.216;2023-08-08T05:00:34;454.03;;;161.73;;
8407;SDS011;4241;48.452;9.216;2023-08-08T05:03:01;454.90;;;163.47;;
8407;SDS011;4241;48.452;9.216;2023-08-08T05:05:28;457.17;;;163.63;;
8407;SDS011;4241;48.452;9.216;2023-08-08T05:07:56;457.50;;;165.13;;
8407;SDS011;4241;48.452;9.216;2023-08-08T05:10:23;458.83;;;165.30;;
8407;SDS011;4241;48.452;9.216;2023-08-08T05:12:50;460.37;;;166.33;;
8407;SDS011;4241;48.452;9.216;2023-08-08T05:15:17;462.50;;;169.10;;
8407;SDS011;4241;48.452;9.216;2023-08-08T05:17:43;462.80;;;169.83;;
8407;SDS011;4241;48.452;9.216;2023-08-08T05:20:11;462.47;;;169.33;;
8407;SDS011;4241;48.452;9.216;2023-08-08T05:22:38;461.87;;;168.87;;
8407;SDS011;4241;48.452;9.216;2023-08-08T05:25:06;464.87;;;172.87;;
8407;SDS011;4241;48.452;9.216;2023-08-08T05:27:33;463.37;;;171.13;;
8407;SDS011;4241;48.452;9.216;2023-08-08T05:30:00;464.53;;;172.63;;
8407;SDS011;4241;48.452;9.216;2023-08-08T05:32:27;463.20;;;169.50;;
8407;SDS011;4241;48.452;9.216;2023-08-08T05:34:54;465.97;;;172.87;;
8407;SDS011;4241;48.452;9.216;2023-08-08T05:37:22;462.80;;;168.20;;
8407;SDS011;4241;48.452;9.216;2023-08-08T05:39:49;464.10;;;170.60;;
8407;SDS011;4241;48.452;9.216;2023-08-08T05:42:18;462.00;;;169.63;;
8407;SDS011;4241;48.452;9.216;2023-08-08T05:44:45;463.63;;;169.40;;
8407;SDS011;4241;48.452;9.216;2023-08-08T05:47:12;463.33;;;170.00;;
8407;SDS011;4241;48.452;9.216;2023-08-08T05:49:39;463.67;;;170.20;;
8407;SDS011;4241;48.452;9.216;2023-08-08T05:52:07;461.43;;;167.37;;
8407;SDS011;4241;48.452;9.216;2023-08-08T05:54:34;464.10;;;170.63;;
8407;SDS011;4241;48.452;9.216;2023-08-08T05:57:01;464.47;;;171.43;;
8407;SDS011;4241;48.452;9.216;2023-08-08T05:59:30;465.27;;;172.63;;
8407;SDS011;4241;48.452;9.216;2023-08-08T06:01:57;464.60;;;171.90;;
8407;SDS011;4241;48.452;9.216;2023-08-08T06:04:24;466.77;;;173.83;;
8407;SDS011;4241;48.452;9.216;2023-08-08T06:06:50;465.93;;;173.23;;
8407;SDS011;4241;48.452;9.216;2023-08-08T06:09:17;471.00;;;178.20;;
8407;SDS011;4241;48.452;9.216;2023-08-08T06:11:45;470.43;;;180.87;;
8407;SDS011;4241;48.452;9.216;2023-08-08T06:14:12;469.20;;;179.50;;
8407;SDS011;4241;48.452;9.216;2023-08-08T06:16:40;470.00;;;180.70;;
8407;SDS011;4241;48.452;9.216;2023-08-08T06:19:07;471.43;;;183.23;;
8407;SDS011;4241;48.452;9.216;2023-08-08T06:21:34;471.27;;;183.43;;
8407;SDS011;4241;48.452;9.216;2023-08-08T06:24:01;475.17;;;186.77;;
8407;SDS011;4241;48.452;9.216;2023-08-08T06:26:28;472.60;;;185.50;;
8407;SDS011;4241;48.452;9.216;2023-08-08T06:28:55;472.63;;;186.47;;
8407;SDS011;4241;48.452;9.216;2023-08-08T06:31:22;473.87;;;188.70;;
8407;SDS011;4241;48.452;9.216;2023-08-08T06:33:50;475.60;;;192.23;;
8407;SDS011;4241;48.452;9.216;2023-08-08T06:36:17;475.03;;;191.30;;
8407;SDS011;4241;48.452;9.216;2023-08-08T06:38:43;475.33;;;191.93;;
8407;SDS011;4241;48.452;9.216;2023-08-08T06:41:10;476.20;;;195.00;;
8407;SDS011;4241;48.452;9.216;2023-08-08T06:43:37;475.30;;;193.77;;
8407;SDS011;4241;48.452;9.216;2023-08-08T06:46:05;476.33;;;196.33;;
8407;SDS011;4241;48.452;9.216;2023-08-08T06:48:31;476.00;;;196.43;;
8407;SDS011;4241;48.452;9.216;2023-08-08T06:50:59;478.27;;;198.47;;
8407;SDS011;4241;48.452;9.216;2023-08-08T06:53:26;477.80;;;200.53;;
8407;SDS011;4241;48.452;9.216;2023-08-08T06:55:53;480.03;;;200.97;;
8407;SDS011;4241;48.452;9.216;2023-08-08T06:58:20;478.90;;;201.87;;
8407;SDS011;4241;48.452;9.216;2023-08-08T07:00:47;478.53;;;204.20;;
8407;SDS011;4241;48.452;9.216;2023-08-08T07:03:13;481.27;;;208.30;;
8407;SDS011;4241;48.452;9.216;2023-08-08T07:05:40;485.80;;;214.43;;
8407;SDS011;4241;48.452;9.216;2023-08-08T07:08:09;481.73;;;209.47;;
8407;SDS011;4241;48.452;9.216;2023-08-08T07:10:36;482.40;;;213.03;;
8407;SDS011;4241;48.452;9.216;2023-08-08T07:13:03;482.67;;;214.33;;
8407;SDS011;4241;48.452;9.216;2023-08-08T07:15:30;481.57;;;210.23;;
8407;SDS011;4241;48.452;9.216;2023-08-08T07:17:57;483.80;;;215.37;;
8407;SDS011;4241;48.452;9.216;2023-08-08T07:20:24;483.43;;;218.00;;
8407;SDS011;4241;48.452;9.216;2023-08-08T07:22:51;484.03;;;220.90;;
8407;SDS011;4241;48.452;9.216;2023-08-08T07:25:19;484.90;;;221.07;;
8407;SDS011;4241;48.452;9.216;2023-08-08T07:27:45;483.57;;;217.97;;
8407;SDS011;4241;48.452;9.216;2023-08-08T07:30:12;483.30;;;217.13;;
8407;SDS011;4241;48.452;9.216;2023-08-08T07:32:39;482.57;;;216.57;;
8407;SDS011;4241;48.452;9.216;2023-08-08T07:35:06;483.93;;;217.57;;
8407;SDS011;4241;48.452;9.216;2023-08-08T07:37:33;483.50;;;218.50;;
8407;SDS011;4241;48.452;9.216;2023-08-08T07:40:00;484.00;;;219.17;;
8407;SDS011;4241;48.452;9.216;2023-08-08T07:42:30;485.37;;;221.90;;
8407;SDS011;4241;48.452;9.216;2023-08-08T07:44:57;485.43;;;222.60;;
8407;SDS011;4241;48.452;9.216;2023-08-08T07:47:23;485.83;;;223.80;;
8407;SDS011;4241;48.452;9.216;2023-08-08T07:49:50;486.33;;;226.67;;
8407;SDS011;4241;48.452;9.216;2023-08-08T07:52:17;486.03;;;228.87;;
8407;SDS011;4241;48.452;9.216;2023-08-08T07:54:44;487.93;;;230.50;;
8407;SDS011;4241;48.452;9.216;2023-08-08T07:57:11;488.03;;;232.70;;
8407;SDS011;4241;48.452;9.216;2023-08-08T07:59:39;488.53;;;233.47;;
8407;SDS011;4241;48.452;9.216;2023-08-08T08:02:05;488.90;;;233.40;;
8407;SDS011;4241;48.452;9.216;2023-08-08T08:04:33;491.23;;;238.17;;
8407;SDS011;4241;48.452;9.216;2023-08-08T08:07:00;490.77;;;241.40;;
8407;SDS011;4241;48.452;9.216;2023-08-08T08:09:28;491.60;;;244.43;;
8407;SDS011;4241;48.452;9.216;2023-08-08T08:11:55;492.90;;;250.07;;
8407;SDS011;4241;48.452;9.216;2023-08-08T08:14:22;492.90;;;250.67;;
8407;SDS011;4241;48.452;9.216;2023-08-08T08:16:50;494.67;;;255.00;;
8407;SDS011;4241;48.452;9.216;2023-08-08T08:19:17;492.67;;;252.10;;
8407;SDS011;4241;48.452;9.216;2023-08-08T08:21:44;502.53;;;261.33;;
8407;SDS011;4241;48.452;9.216;2023-08-08T08:24:11;492.50;;;250.87;;
8407;SDS011;4241;48.452;9.216;2023-08-08T08:26:38;490.60;;;246.53;;
8407;SDS011;4241;48.452;9.216;2023-08-08T08:29:05;490.50;;;243.40;;
8407;SDS011;4241;48.452;9.216;2023-08-08T08:31:32;490.40;;;242.37;;
8407;SDS011;4241;48.452;9.216;2023-08-08T08:34:00;492.10;;;242.70;;
8407;SDS011;4241;48.452;9.216;2023-08-08T08:36:27;491.00;;;243.80;;
8407;SDS011;4241;48.452;9.216;2023-08-08T08:38:54;491.17;;;243.13;;
8407;SDS011;4241;48.452;9.216;2023-08-08T08:41:21;490.87;;;243.40;;
8407;SDS011;4241;48.452;9.216;2023-08-08T08:43:52;496.00;;;251.93;;
8407;SDS011;4241;48.452;9.216;2023-08-08T08:46:21;491.40;;;247.10;;
8407;SDS011;4241;48.452;9.216;2023-08-08T08:48:49;493.87;;;250.27;;
8407;SDS011;4241;48.452;9.216;2023-08-08T08:51:19;491.20;;;246.00;;
8407;SDS011;4241;48.452;9.216;2023-08-08T08:53:45;495.37;;;259.93;;
8407;SDS011;4241;48.452;9.216;2023-08-08T08:56:13;496.83;;;260.83;;
8407;SDS011;4241;48.452;9.216;2023-08-08T08:58:41;495.63;;;264.73;;
8407;SDS011;4241;48.452;9.216;2023-08-08T09:01:09;497.40;;;267.53;;
8407;SDS011;4241;48.452;9.216;2023-08-08T09:03:36;499.60;;;274.93;;
8407;SDS011;4241;48.452;9.216;2023-08-08T09:06:03;499.87;;;279.20;;
8407;SDS011;4241;48.452;9.216;2023-08-08T09:08:32;498.00;;;273.47;;
8407;SDS011;4241;48.452;9.216;2023-08-08T09:10:59;499.93;;;277.23;;
8407;SDS011;4241;48.452;9.216;2023-08-08T09:13:26;497.67;;;272.93;;
8407;SDS011;4241;48.452;9.216;2023-08-08T09:15:53;499.17;;;272.97;;
8407;SDS011;4241;48.452;9.216;2023-08-08T09:18:22;496.50;;;265.20;;
8407;SDS011;4241;48.452;9.216;2023-08-08T09:20:50;496.07;;;263.40;;
8407;SDS011;4241;48.452;9.216;2023-08-08T09:23:17;495.43;;;260.77;;
8407;SDS011;4241;48.452;9.216;2023-08-08T09:25:45;495.53;;;260.33;;
8407;SDS011;4241;48.452;9.216;2023-08-08T09:28:12;495.33;;;261.60;;
8407;SDS011;4241;48.452;9.216;2023-08-08T09:30:40;494.63;;;261.23;;
8407;SDS011;4241;48.452;9.216;2023-08-08T09:33:07;495.73;;;262.80;;
8407;SDS011;4241;48.452;9.216;2023-08-08T09:35:34;494.97;;;263.37;;
8407;SDS011;4241;48.452;9.216;2023-08-08T09:38:04;495.53;;;266.70;;
8407;SDS011;4241;48.452;9.216;2023-08-08T09:40:31;496.70;;;269.47;;
8407;SDS011;4241;48.452;9.216;2023-08-08T09:43:00;499.23;;;274.70;;
8407;SDS011;4241;48.452;9.216;2023-08-08T09:45:27;500.80;;;282.50;;
8407;SDS011;4241;48.452;9.216;2023-08-08T09:48:02;497.90;;;277.77;;
8407;SDS011;4241;48.452;9.216;2023-08-08T09:50:29;499.97;;;279.53;;
8407;SDS011;4241;48.452;9.216;2023-08-08T09:52:57;498.27;;;277.70;;
8407;SDS011;4241;48.452;9.216;2023-08-08T09:55:25;499.03;;;277.57;;
8407;SDS011;4241;48.452;9.216;2023-08-08T09:57:52;496.83;;;275.20;;
8407;SDS011;4241;48.452;9.216;2023-08-08T10:00:21;498.73;;;278.30;;
8407;SDS011;4241;48.452;9.216;2023-08-08T10:02:50;497.90;;;279.53;;
8407;SDS011;4241;48.452;9.216;2023-08-08T10:05:17;501.20;;;283.93;;
8407;SDS011;4241;48.452;9.216;2023-08-08T10:07:44;498.70;;;278.50;;
8407;SDS011;4241;48.452;9.216;2023-08-08T10:10:11;498.90;;;278.73;;
8407;SDS011;4241;48.452;9.216;2023-08-08T10:12:39;499.93;;;281.23;;
8407;SDS011;4241;48.452;9.216;2023-08-08T10:15:07;497.43;;;277.30;;
8407;SDS011;4241;48.452;9.216;2023-08-08T10:17:37;498.53;;;280.07;;
8407;SDS011;4241;48.452;9.216;2023-08-08T10:20:05;500.47;;;283.67;;
8407;SDS011;4241;48.452;9.216;2023-08-08T10:22:36;498.07;;;280.00;;
8407;SDS011;4241;48.452;9.216;2023-08-08T10:25:08;499.10;;;281.20;;
8407;SDS011;4241;48.452;9.216;2023-08-08T10:27:35;499.70;;;278.67;;
8407;SDS011;4241;48.452;9.216;2023-08-08T10:30:04;502.13;;;285.80;;
8407;SDS011;4241;48.452;9.216;2023-08-08T10:32:40;498.97;;;280.83;;
8407;SDS011;4241;48.452;9.216;2023-08-08T10:35:07;499.63;;;283.77;;
8407;SDS011;4241;48.452;9.216;2023-08-08T10:37:36;500.27;;;284.93;;
8407;SDS011;4241;48.452;9.216;2023-08-08T10:40:04;502.47;;;287.03;;
8407;SDS011;4241;48.452;9.216;2023-08-08T10:42:36;498.43;;;285.40;;
8407;SDS011;4241;48.452;9.216;2023-08-08T10:45:09;501.57;;;292.50;;
8407;SDS011;4241;48.452;9.216;2023-08-08T10:47:39;502.43;;;295.87;;
8407;SDS011;4241;48.452;9.216;2023-08-08T10:50:10;506.57;;;301.53;;
8407;SDS011;4241;48.452;9.216;2023-08-08T10:52:38;503.80;;;298.10;;
8407;SDS011;4241;48.452;9.216;2023-08-08T10:55:20;504.50;;;300.83;;
8407;SDS011;4241;48.452;9.216;2023-08-08T10:57:54;504.27;;;301.10;;
8407;SDS011;4241;48.452;9.216;2023-08-08T11:00:26;502.80;;;298.93;;
8407;SDS011;4241;48.452;9.216;2023-08-08T11:02:57;502.67;;;297.03;;
8407;SDS011;4241;48.452;9.216;2023-08-08T11:05:24;503.20;;;294.60;;
8407;SDS011;4241;48.452;9.216;2023-08-08T11:07:52;503.43;;;296.30;;
8407;SDS011;4241;48.452;9.216;2023-08-08T11:10:19;501.57;;;294.33;;
8407;SDS011;4241;48.452;9.216;2023-08-08T11:12:54;502.37;;;296.57;;
8407;SDS011;4241;48.452;9.216;2023-08-08T11:17:49;503.07;;;300.27;;
8407;SDS011;4241;48.452;9.216;2023-08-08T11:20:19;506.80;;;309.27;;
8407;SDS011;4241;48.452;9.216;2023-08-08T11:22:49;508.37;;;310.00;;
8407;SDS011;4241;48.452;9.216;2023-08-08T11:25:18;504.80;;;307.03;;
8407;SDS011;4241;48.452;9.216;2023-08-08T11:27:48;505.03;;;309.03;;
8407;SDS011;4241;48.452;9.216;2023-08-08T11:30:16;506.47;;;305.33;;
8407;SDS011;4241;48.452;9.216;2023-08-08T11:32:43;504.80;;;303.77;;
8407;SDS011;4241;48.452;9.216;2023-08-08T11:35:11;504.27;;;304.37;;
8407;SDS011;4241;48.452;9.216;2023-08-08T11:37:39;504.83;;;309.63;;
8407;SDS011;4241;48.452;9.216;2023-08-08T11:40:06;504.50;;;309.23;;
8407;SDS011;4241;48.452;9.216;2023-08-08T11:42:34;506.70;;;311.83;;
8407;SDS011;4241;48.452;9.216;2023-08-08T11:45:02;523.10;;;329.20;;
8407;SDS011;4241;48.452;9.216;2023-08-08T11:47:29;506.93;;;316.07;;
8407;SDS011;4241;48.452;9.216;2023-08-08T11:50:00;506.33;;;313.40;;
8407;SDS011;4241;48.452;9.216;2023-08-08T11:52:28;505.10;;;310.07;;
8407;SDS011;4241;48.452;9.216;2023-08-08T11:54:56;506.93;;;313.53;;
8407;SDS011;4241;48.452;9.216;2023-08-08T11:57:25;504.80;;;310.63;;
8407;SDS011;4241;48.452;9.216;2023-08-08T11:59:52;507.50;;;319.03;;
8407;SDS011;4241;48.452;9.216;2023-08-08T12:02:19;509.63;;;323.57;;
8407;SDS011;4241;48.452;9.216;2023-08-08T12:04:46;505.83;;;313.33;;
8407;SDS011;4241;48.452;9.216;2023-08-08T12:07:13;505.83;;;310.93;;
8407;SDS011;4241;48.452;9.216;2023-08-08T12:09:41;507.43;;;316.27;;
8407;SDS011;4241;48.452;9.216;2023-08-08T12:12:09;514.27;;;322.50;;
8407;SDS011;4241;48.452;9.216;2023-08-08T12:14:36;507.03;;;322.60;;
8407;SDS011;4241;48.452;9.216;2023-08-08T12:17:03;509.27;;;329.07;;
8407;SDS011;4241;48.452;9.216;2023-08-08T12:19:30;511.00;;;335.43;;
8407;SDS011;4241;48.452;9.216;2023-08-08T12:21:57;509.13;;;337.33;;
8407;SDS011;4241;48.452;9.216;2023-08-08T12:24:24;511.10;;;341.23;;
8407;SDS011;4241;48.452;9.216;2023-08-08T12:26:51;513.03;;;346.53;;
8407;SDS011;4241;48.452;9.216;2023-08-08T12:29:19;540.00;;;376.67;;
8407;SDS011;4241;48.452;9.216;2023-08-08T12:31:46;511.93;;;349.30;;
8407;SDS011;4241;48.452;9.216;2023-08-08T12:34:12;512.70;;;352.90;;
8407;SDS011;4241;48.452;9.216;2023-08-08T12:36:39;514.63;;;354.50;;
8407;SDS011;4241;48.452;9.216;2023-08-08T12:39:06;511.03;;;347.17;;
8407;SDS011;4241;48.452;9.216;2023-08-08T12:41:33;512.43;;;349.33;;
8407;SDS011;4241;48.452;9.216;2023-08-08T12:44:00;513.17;;;342.10;;
8407;SDS011;4241;48.452;9.216;2023-08-08T12:46:29;510.13;;;337.80;;
8407;SDS011;4241;48.452;9.216;2023-08-08T12:48:56;507.80;;;328.67;;
8407;SDS011;4241;48.452;9.216;2023-08-08T12:51:23;509.70;;;332.07;;
8407;SDS011;4241;48.452;9.216;2023-08-08T12:53:50;507.90;;;326.03;;
8407;SDS011;4241;48.452;9.216;2023-08-08T12:56:17;506.63;;;327.50;;
8407;SDS011;4241;48.452;9.216;2023-08-08T12:58:45;508.90;;;332.13;;
8407;SDS011;4241;48.452;9.216;2023-08-08T13:01:12;509.37;;;334.80;;
8407;SDS011;4241;48.452;9.216;2023-08-08T13:03:40;510.50;;;339.50;;
8407;SDS011;4241;48.452;9.216;2023-08-08T13:06:06;509.63;;;336.20;;
8407;SDS011;4241;48.452;9.216;2023-08-08T13:08:33;510.73;;;337.10;;
8407;SDS011;4241;48.452;9.216;2023-08-08T13:11:00;508.97;;;335.40;;
8407;SDS011;4241;48.452;9.216;2023-08-08T13:13:27;511.40;;;335.40;;
8407;SDS011;4241;48.452;9.216;2023-08-08T13:15:54;508.97;;;333.63;;
8407;SDS011;4241;48.452;9.216;2023-08-08T13:18:21;508.63;;;333.63;;
8407;SDS011;4241;48.452;9.216;2023-08-08T13:20:49;508.67;;;332.20;;
8407;SDS011;4241;48.452;9.216;2023-08-08T13:23:17;508.73;;;336.37;;
8407;SDS011;4241;48.452;9.216;2023-08-08T13:25:44;509.97;;;335.93;;
8407;SDS011;4241;48.452;9.216;2023-08-08T13:28:11;509.07;;;334.83;;
8407;SDS011;4241;48.452;9.216;2023-08-08T13:30:39;508.63;;;328.87;;
8407;SDS011;4241;48.452;9.216;2023-08-08T13:33:08;509.20;;;331.40;;
8407;SDS011;4241;48.452;9.216;2023-08-08T13:35:34;509.10;;;326.17;;
8407;SDS011;4241;48.452;9.216;2023-08-08T13:38:03;509.93;;;331.20;;
8407;SDS011;4241;48.452;9.216;2023-08-08T13:40:30;508.27;;;324.57;;
8407;SDS011;4241;48.452;9.216;2023-08-08T13:42:56;506.97;;;319.50;;
8407;SDS011;4241;48.452;9.216;2023-08-08T13:45:23;507.87;;;322.33;;
8407;SDS011;4241;48.452;9.216;2023-08-08T13:47:50;505.37;;;320.10;;
8407;SDS011;4241;48.452;9.216;2023-08-08T13:50:17;511.10;;;327.73;;
8407;SDS011;4241;48.452;9.216;2023-08-08T13:52:44;509.57;;;321.53;;
8407;SDS011;4241;48.452;9.216;2023-08-08T13:55:12;510.07;;;324.87;;
8407;SDS011;4241;48.452;9.216;2023-08-08T13:57:39;507.30;;;321.87;;
8407;SDS011;4241;48.452;9.216;2023-08-08T14:00:06;506.17;;;316.70;;
8407;SDS011;4241;48.452;9.216;2023-08-08T14:02:36;510.90;;;326.70;;
8407;SDS011;4241;48.452;9.216;2023-08-08T14:05:03;508.03;;;323.87;;
8407;SDS011;4241;48.452;9.216;2023-08-08T14:07:31;507.23;;;322.93;;
8407;SDS011;4241;48.452;9.216;2023-08-08T14:09:58;506.77;;;324.73;;
8407;SDS011;4241;48.452;9.216;2023-08-08T14:12:26;508.50;;;324.07;;
8407;SDS011;4241;48.452;9.216;2023-08-08T14:14:53;505.50;;;315.57;;
8407;SDS011;4241;48.452;9.216;2023-08-08T14:17:20;505.30;;;311.83;;
8407;SDS011;4241;48.452;9.216;2023-08-08T14:19:47;504.00;;;307.17;;
8407;SDS011;4241;48.452;9.216;2023-08-08T14:22:13;520.97;;;317.07;;
8407;SDS011;4241;48.452;9.216;2023-08-08T14:24:41;502.67;;;296.10;;